sensor_id;sensor_type;location;lat;lon;timestamp;pressure;altitude;pressure_sealevel;temperature;humidity
20983;BME280;10650;51.528;6.748;2022-10-03T00:01:54;102301.81;;;11.36;82.21
20983;BME280;10650;51.528;6.748;2022-10-03T00:04:52;102309.78;;;11.33;82.21
20983;BME280;10650;51.528;6.748;2022-10-03T00:07:37;102305.31;;;11.31;82.61
20983;BME280;10650;51.528;6.748;2022-10-03T00:10:19;102311.50;;;11.27;82.23
20983;BME280;10650;51.528;6.748;2022-10-03T00:13:02;102318.59;;;11.24;82.19
20983;BME280;10650;51.528;6.748;2022-10-03T00:15:38;102318.56;;;11.21;82.26
20983;BME280;10650;51.528;6.748;2022-10-03T00:18:21;102317.66;;;11.19;82.53
20983;BME280;10650;51.528;6.748;2022-10-03T00:21:04;102320.25;;;11.15;82.62
20983;BME280;10650;51.528;6.748;2022-10-03T00:23:47;102319.31;;;11.13;82.28
20983;BME280;10650;51.528;6.748;2022-10-03T00:26:29;102318.41;;;11.11;82.36
20983;BME280;10650;51.528;6.748;2022-10-03T00:29:20;102325.50;;;11.08;82.81
20983;BME280;10650;51.528;6.748;2022-10-03T00:31:56;102326.34;;;11.06;82.44
20983;BME280;10650;51.528;6.748;2022-10-03T00:34:40;102325.44;;;11.04;82.68
20983;BME280;10650;51.528;6.748;2022-10-03T00:37:25;102328.94;;;10.98;82.28
20983;BME280;10650;51.528;6.748;2022-10-03T00:40:16;102332.44;;;10.96;82.16
20983;BME280;10650;51.528;6.748;2022-10-03T00:43:18;102329.78;;;10.96;82.53
20983;BME280;10650;51.528;6.748;2022-10-03T00:46:03;102330.69;;;10.96;82.94
20983;BME280;10650;51.528;6.748;2022-10-03T00:48:59;102337.75;;;10.93;82.35
20983;BME280;10650;51.528;6.748;2022-10-03T00:51:42;102342.22;;;10.92;82.62
20983;BME280;10650;51.528;6.748;2022-10-03T00:54:27;102350.25;;;10.92;83.07
20983;BME280;10650;51.528;6.748;2022-10-03T00:57:10;102347.50;;;10.87;82.39
20983;BME280;10650;51.528;6.748;2022-10-03T01:00:00;102343.84;;;10.82;82.78
20983;BME280;10650;51.528;6.748;2022-10-03T01:02:43;102351.84;;;10.81;82.73
20983;BME280;10650;51.528;6.748;2022-10-03T01:05:20;102359.88;;;10.82;83.13
20983;BME280;10650;51.528;6.748;2022-10-03T01:08:04;102354.53;;;10.81;83.16
20983;BME280;10650;51.528;6.748;2022-10-03T01:10:44;102349.16;;;10.79;83.00
20983;BME280;10650;51.528;6.748;2022-10-03T01:13:28;102355.34;;;10.77;82.79
20983;BME280;10650;51.528;6.748;2022-10-03T01:16:05;102357.09;;;10.75;83.00
20983;BME280;10650;51.528;6.748;2022-10-03T01:18:49;102358.84;;;10.72;83.09
20983;BME280;10650;51.528;6.748;2022-10-03T01:21:30;102348.09;;;10.69;83.28
20983;BME280;10650;51.528;6.748;2022-10-03T01:27:07;102352.47;;;10.64;83.82
20983;BME280;10650;51.528;6.748;2022-10-03T01:29:43;102357.78;;;10.63;83.20
20983;BME280;10650;51.528;6.748;2022-10-03T01:32:34;102357.78;;;10.63;82.82
20983;BME280;10650;51.528;6.748;2022-10-03T01:35:17;102357.75;;;10.61;83.49
20983;BME280;10650;51.528;6.748;2022-10-03T01:37:55;102354.19;;;10.59;83.33
20983;BME280;10650;51.528;6.748;2022-10-03T01:40:27;102360.34;;;10.56;83.13
20983;BME280;10650;51.528;6.748;2022-10-03T01:42:59;102365.69;;;10.56;83.44
20983;BME280;10650;51.528;6.748;2022-10-03T01:45:40;102369.25;;;10.55;83.36
20983;BME280;10650;51.528;6.748;2022-10-03T01:48:13;102362.13;;;10.54;83.64
20983;BME280;10650;51.528;6.748;2022-10-03T01:50:49;102373.69;;;10.53;83.48
20983;BME280;10650;51.528;6.748;2022-10-03T01:53:23;102373.66;;;10.52;83.48
20983;BME280;10650;51.528;6.748;2022-10-03T01:55:58;102380.78;;;10.53;83.19
20983;BME280;10650;51.528;6.748;2022-10-03T01:58:39;102378.97;;;10.50;83.57
20983;BME280;10650;51.528;6.748;2022-10-03T02:01:14;102380.69;;;10.48;83.23
20983;BME280;10650;51.528;6.748;2022-10-03T02:03:53;102386.00;;;10.45;82.98
20983;BME280;10650;51.528;6.748;2022-10-03T02:06:37;102377.06;;;10.43;83.09
20983;BME280;10650;51.528;6.748;2022-10-03T02:09:17;102388.63;;;10.42;83.84
20983;BME280;10650;51.528;6.748;2022-10-03T02:11:59;102385.06;;;10.42;83.51
20983;BME280;10650;51.528;6.748;2022-10-03T02:14:34;102388.56;;;10.39;83.72
20983;BME280;10650;51.528;6.748;2022-10-03T02:17:12;102390.28;;;10.37;83.11
20983;BME280;10650;51.528;6.748;2022-10-03T02:19:49;102393.84;;;10.36;83.56
20983;BME280;10650;51.528;6.748;2022-10-03T02:22:30;102391.13;;;10.34;83.48
20983;BME280;10650;51.528;6.748;2022-10-03T02:25:10;102393.72;;;10.31;83.30
20983;BME280;10650;51.528;6.748;2022-10-03T02:28:13;102401.69;;;10.30;83.48
20983;BME280;10650;51.528;6.748;2022-10-03T02:34:14;102398.97;;;10.25;83.43
20983;BME280;10650;51.528;6.748;2022-10-03T02:40:26;102397.97;;;10.20;83.23
20983;BME280;10650;51.528;6.748;2022-10-03T02:43:18;102410.38;;;10.18;83.22
20983;BME280;10650;51.528;6.748;2022-10-03T02:46:19;102397.88;;;10.15;83.31
20983;BME280;10650;51.528;6.748;2022-10-03T02:49:06;102406.72;;;10.13;83.68
20983;BME280;10650;51.528;6.748;2022-10-03T02:51:56;102409.41;;;10.13;83.16
20983;BME280;10650;51.528;6.748;2022-10-03T02:54:40;102412.94;;;10.10;83.22
20983;BME280;10650;51.528;6.748;2022-10-03T02:57:50;102410.16;;;10.07;83.51
20983;BME280;10650;51.528;6.748;2022-10-03T03:00:35;102417.25;;;10.05;83.52
20983;BME280;10650;51.528;6.748;2022-10-03T03:03:30;102419.03;;;10.03;83.76
20983;BME280;10650;51.528;6.748;2022-10-03T03:06:44;102424.28;;;10.01;83.46
20983;BME280;10650;51.528;6.748;2022-10-03T03:12:45;102419.75;;;9.96;83.24
20983;BME280;10650;51.528;6.748;2022-10-03T03:15:57;102418.84;;;9.95;83.82
20983;BME280;10650;51.528;6.748;2022-10-03T03:18:35;102425.03;;;9.94;83.45
20983;BME280;10650;51.528;6.748;2022-10-03T03:21:14;102427.69;;;9.93;83.00
20983;BME280;10650;51.528;6.748;2022-10-03T03:24:11;102429.44;;;9.91;83.22
20983;BME280;10650;51.528;6.748;2022-10-03T03:29:50;102423.97;;;9.84;83.23
20983;BME280;10650;51.528;6.748;2022-10-03T03:32:29;102429.28;;;9.83;83.10
20983;BME280;10650;51.528;6.748;2022-10-03T03:35:07;102427.47;;;9.82;82.89
20983;BME280;10650;51.528;6.748;2022-10-03T03:37:46;102428.34;;;9.81;83.09
20983;BME280;10650;51.528;6.748;2022-10-03T03:40:30;102422.97;;;9.79;82.98
20983;BME280;10650;51.528;6.748;2022-10-03T03:43:15;102427.38;;;9.77;83.24
20983;BME280;10650;51.528;6.748;2022-10-03T03:45:56;102428.25;;;9.76;82.83
20983;BME280;10650;51.528;6.748;2022-10-03T03:48:56;102424.63;;;9.74;83.33
20983;BME280;10650;51.528;6.748;2022-10-03T03:51:36;102426.41;;;9.74;83.24
20983;BME280;10650;51.528;6.748;2022-10-03T03:54:29;102427.28;;;9.74;83.14
20983;BME280;10650;51.528;6.748;2022-10-03T03:57:18;102435.28;;;9.73;83.27
20983;BME280;10650;51.528;6.748;2022-10-03T04:00:02;102429.88;;;9.69;83.16
20983;BME280;10650;51.528;6.748;2022-10-03T04:02:43;102443.22;;;9.69;83.19
20983;BME280;10650;51.528;6.748;2022-10-03T04:05:23;102441.34;;;9.65;82.82
20983;BME280;10650;51.528;6.748;2022-10-03T04:08:08;102439.47;;;9.61;82.58
20983;BME280;10650;51.528;6.748;2022-10-03T04:10:50;102447.44;;;9.60;82.90
20983;BME280;10650;51.528;6.748;2022-10-03T04:13:31;102451.00;;;9.59;83.10
20983;BME280;10650;51.528;6.748;2022-10-03T04:16:20;102445.59;;;9.56;82.92
20983;BME280;10650;51.528;6.748;2022-10-03T04:19:10;102444.66;;;9.53;83.48
20983;BME280;10650;51.528;6.748;2022-10-03T04:22:05;102444.66;;;9.53;83.43
20983;BME280;10650;51.528;6.748;2022-10-03T04:25:00;102440.13;;;9.51;83.02
20983;BME280;10650;51.528;6.748;2022-10-03T04:27:59;102441.06;;;9.51;83.43
20983;BME280;10650;51.528;6.748;2022-10-03T04:30:39;102449.13;;;9.55;83.04
20983;BME280;10650;51.528;6.748;2022-10-03T04:33:21;102450.13;;;9.60;83.19
20983;BME280;10650;51.528;6.748;2022-10-03T04:39:09;102448.47;;;9.65;83.24
20983;BME280;10650;51.528;6.748;2022-10-03T04:41:49;102445.78;;;9.65;83.58
20983;BME280;10650;51.528;6.748;2022-10-03T04:44:34;102452.00;;;9.64;83.62
20983;BME280;10650;51.528;6.748;2022-10-03T04:47:15;102449.28;;;9.62;83.63
20983;BME280;10650;51.528;6.748;2022-10-03T04:49:49;102457.25;;;9.61;83.21
20983;BME280;10650;51.528;6.748;2022-10-03T04:52:27;102454.56;;;9.59;83.28
20983;BME280;10650;51.528;6.748;2022-10-03T04:55:04;102453.66;;;9.59;83.55
20983;BME280;10650;51.528;6.748;2022-10-03T04:57:36;102455.34;;;9.55;83.44
20983;BME280;10650;51.528;6.748;2022-10-03T05:00:20;102446.44;;;9.53;83.47
20983;BME280;10650;51.528;6.748;2022-10-03T05:02:57;102454.44;;;9.53;83.43
20983;BME280;10650;51.528;6.748;2022-10-03T05:05:40;102453.50;;;9.52;83.78
20983;BME280;10650;51.528;6.748;2022-10-03T05:08:28;102451.78;;;9.55;83.88
20983;BME280;10650;51.528;6.748;2022-10-03T05:11:11;102450.03;;;9.55;83.75
20983;BME280;10650;51.528;6.748;2022-10-03T05:14:00;102448.31;;;9.57;83.81
20983;BME280;10650;51.528;6.748;2022-10-03T05:16:37;102452.78;;;9.60;84.36
20983;BME280;10650;51.528;6.748;2022-10-03T05:19:58;102452.81;;;9.61;83.88
20983;BME280;10650;51.528;6.748;2022-10-03T05:22:38;102458.22;;;9.63;84.32
20983;BME280;10650;51.528;6.748;2022-10-03T05:25:17;102460.97;;;9.67;84.25
20983;BME280;10650;51.528;6.748;2022-10-03T05:27:51;102465.44;;;9.68;84.18
20983;BME280;10650;51.528;6.748;2022-10-03T05:30:32;102472.63;;;9.73;84.62
20983;BME280;10650;51.528;6.748;2022-10-03T05:33:06;102473.59;;;9.75;84.51
20983;BME280;10650;51.528;6.748;2022-10-03T05:35:48;102469.22;;;9.80;84.62
20983;BME280;10650;51.528;6.748;2022-10-03T05:41:22;102478.31;;;9.88;85.02
20983;BME280;10650;51.528;6.748;2022-10-03T05:44:00;102478.38;;;9.91;84.66
20983;BME280;10650;51.528;6.748;2022-10-03T05:46:38;102486.44;;;9.94;85.27
20983;BME280;10650;51.528;6.748;2022-10-03T05:49:24;102495.44;;;9.98;84.92
20983;BME280;10650;51.528;6.748;2022-10-03T05:52:23;102484.81;;;10.01;85.23
20983;BME280;10650;51.528;6.748;2022-10-03T05:55:11;102485.69;;;10.00;85.46
20983;BME280;10650;51.528;6.748;2022-10-03T05:58:10;102494.59;;;9.99;85.22
20983;BME280;10650;51.528;6.748;2022-10-03T06:01:03;102505.25;;;9.99;85.53
20983;BME280;10650;51.528;6.748;2022-10-03T06:04:12;102486.56;;;9.99;85.45
20983;BME280;10650;51.528;6.748;2022-10-03T06:06:53;102491.00;;;9.98;85.24
20983;BME280;10650;51.528;6.748;2022-10-03T06:10:05;102501.69;;;9.98;85.71
20983;BME280;10650;51.528;6.748;2022-10-03T06:12:44;102505.25;;;9.99;85.93
20983;BME280;10650;51.528;6.748;2022-10-03T06:15:35;102507.00;;;9.98;85.79
20983;BME280;10650;51.528;6.748;2022-10-03T06:18:28;102507.91;;;9.97;86.04
20983;BME280;10650;51.528;6.748;2022-10-03T06:21:16;102500.78;;;9.98;86.37
20983;BME280;10650;51.528;6.748;2022-10-03T06:24:18;102507.00;;;9.98;86.38
20983;BME280;10650;51.528;6.748;2022-10-03T06:27:21;102505.25;;;9.99;86.00
20983;BME280;10650;51.528;6.748;2022-10-03T06:30:07;102506.25;;;10.04;86.41
20983;BME280;10650;51.528;6.748;2022-10-03T06:36:06;102508.50;;;10.27;86.46
20983;BME280;10650;51.528;6.748;2022-10-03T06:45:12;102514.59;;;10.62;86.72
20983;BME280;10650;51.528;6.748;2022-10-03T06:48:01;102520.88;;;10.66;87.27
20983;BME280;10650;51.528;6.748;2022-10-03T06:50:44;102520.97;;;10.69;87.03
20983;BME280;10650;51.528;6.748;2022-10-03T06:53:44;102526.34;;;10.70;87.41
20983;BME280;10650;51.528;6.748;2022-10-03T06:56:56;102531.72;;;10.73;87.68
20983;BME280;10650;51.528;6.748;2022-10-03T06:59:48;102533.69;;;10.84;87.51
20983;BME280;10650;51.528;6.748;2022-10-03T07:02:49;102531.31;;;10.99;87.86
20983;BME280;10650;51.528;6.748;2022-10-03T07:05:48;102530.63;;;11.11;88.43
20983;BME280;10650;51.528;6.748;2022-10-03T07:08:33;102530.78;;;11.20;88.16
20983;BME280;10650;51.528;6.748;2022-10-03T07:11:23;102535.41;;;11.31;88.57
20983;BME280;10650;51.528;6.748;2022-10-03T07:17:21;102521.44;;;11.50;87.88
20983;BME280;10650;51.528;6.748;2022-10-03T07:20:21;102531.31;;;11.54;87.78
20983;BME280;10650;51.528;6.748;2022-10-03T07:23:27;102532.22;;;11.55;87.89
20983;BME280;10650;51.528;6.748;2022-10-03T07:26:19;102539.41;;;11.59;87.70
20983;BME280;10650;51.528;6.748;2022-10-03T07:29:07;102540.41;;;11.66;87.66
20983;BME280;10650;51.528;6.748;2022-10-03T07:31:52;102538.75;;;11.74;87.77
20983;BME280;10650;51.528;6.748;2022-10-03T07:37:44;102528.50;;;12.05;87.66
20983;BME280;10650;51.528;6.748;2022-10-03T07:41:13;102541.06;;;12.10;87.07
20983;BME280;10650;51.528;6.748;2022-10-03T07:44:24;102542.88;;;12.10;86.48
20983;BME280;10650;51.528;6.748;2022-10-03T07:47:27;102561.53;;;12.02;86.36
20983;BME280;10650;51.528;6.748;2022-10-03T07:50:35;102555.22;;;12.00;86.34
20983;BME280;10650;51.528;6.748;2022-10-03T07:53:24;102558.91;;;12.07;86.64
20983;BME280;10650;51.528;6.748;2022-10-03T07:56:08;102559.00;;;12.15;86.70
20983;BME280;10650;51.528;6.748;2022-10-03T07:59:02;102564.50;;;12.24;86.61
20983;BME280;10650;51.528;6.748;2022-10-03T08:01:49;102564.56;;;12.30;86.13
20983;BME280;10650;51.528;6.748;2022-10-03T08:04:46;102570.81;;;12.31;85.60
20983;BME280;10650;51.528;6.748;2022-10-03T08:13:32;102569.84;;;12.24;85.86
20983;BME280;10650;51.528;6.748;2022-10-03T08:16:13;102573.41;;;12.24;85.11
20983;BME280;10650;51.528;6.748;2022-10-03T08:19:00;102586.97;;;12.34;85.42
20983;BME280;10650;51.528;6.748;2022-10-03T08:21:49;102583.47;;;12.41;85.62
20983;BME280;10650;51.528;6.748;2022-10-03T08:24:22;102588.03;;;12.46;85.03
20983;BME280;10650;51.528;6.748;2022-10-03T08:27:30;102587.22;;;12.55;85.11
20983;BME280;10650;51.528;6.748;2022-10-03T08:30:16;102581.94;;;12.63;84.74
20983;BME280;10650;51.528;6.748;2022-10-03T08:33:10;102583.78;;;12.66;84.57
20983;BME280;10650;51.528;6.748;2022-10-03T08:36:04;102585.63;;;12.73;84.45
20983;BME280;10650;51.528;6.748;2022-10-03T08:38:55;102586.66;;;12.83;84.49
20983;BME280;10650;51.528;6.748;2022-10-03T08:44:54;102585.91;;;12.97;84.34
20983;BME280;10650;51.528;6.748;2022-10-03T08:51:09;102589.63;;;13.12;84.03
20983;BME280;10650;51.528;6.748;2022-10-03T08:54:05;102592.34;;;13.16;84.02
20983;BME280;10650;51.528;6.748;2022-10-03T08:57:02;102586.22;;;13.30;83.98
20983;BME280;10650;51.528;6.748;2022-10-03T09:00:00;102576.50;;;13.38;83.46
20983;BME280;10650;51.528;6.748;2022-10-03T09:02:49;102578.38;;;13.48;83.10
20983;BME280;10650;51.528;6.748;2022-10-03T09:06:09;102577.50;;;13.54;82.54
20983;BME280;10650;51.528;6.748;2022-10-03T09:12:11;102577.66;;;13.76;82.47
20983;BME280;10650;51.528;6.748;2022-10-03T09:15:24;102575.97;;;13.87;82.54
20983;BME280;10650;51.528;6.748;2022-10-03T09:18:19;102571.50;;;13.97;82.24
20983;BME280;10650;51.528;6.748;2022-10-03T09:24:17;102576.09;;;14.12;81.29
20983;BME280;10650;51.528;6.748;2022-10-03T09:27:28;102577.00;;;14.15;81.20
20983;BME280;10650;51.528;6.748;2022-10-03T09:30:15;102581.56;;;14.26;81.17
20983;BME280;10650;51.528;6.748;2022-10-03T09:36:22;102568.19;;;14.44;79.85
20983;BME280;10650;51.528;6.748;2022-10-03T09:39:16;102568.22;;;14.50;79.40
20983;BME280;10650;51.528;6.748;2022-10-03T09:48:25;102562.00;;;14.65;78.91
20983;BME280;10650;51.528;6.748;2022-10-03T09:51:19;102554.84;;;14.74;78.37
20983;BME280;10650;51.528;6.748;2022-10-03T09:57:35;102558.50;;;14.99;78.43
20983;BME280;10650;51.528;6.748;2022-10-03T10:00:15;102551.31;;;15.09;78.00
20983;BME280;10650;51.528;6.748;2022-10-03T10:03:11;102556.72;;;15.10;75.23
20983;BME280;10650;51.528;6.748;2022-10-03T10:09:17;102547.78;;;15.16;75.01
20983;BME280;10650;51.528;6.748;2022-10-03T10:12:12;102556.75;;;15.33;76.06
20983;BME280;10650;51.528;6.748;2022-10-03T10:15:12;102543.25;;;15.44;75.20
20983;BME280;10650;51.528;6.748;2022-10-03T10:18:20;102538.75;;;15.58;75.16
20983;BME280;10650;51.528;6.748;2022-10-03T10:27:34;102547.72;;;15.84;73.25
20983;BME280;10650;51.528;6.748;2022-10-03T10:30:20;102534.22;;;15.93;73.55
20983;BME280;10650;51.528;6.748;2022-10-03T10:33:22;102536.00;;;16.06;73.81
20983;BME280;10650;51.528;6.748;2022-10-03T10:36:36;102534.16;;;16.16;73.23
20983;BME280;10650;51.528;6.748;2022-10-03T10:39:45;102531.41;;;16.27;71.91
20983;BME280;10650;51.528;6.748;2022-10-03T10:42:44;102528.69;;;16.32;71.61
20983;BME280;10650;51.528;6.748;2022-10-03T10:45:42;102533.22;;;16.26;71.43
20983;BME280;10650;51.528;6.748;2022-10-03T10:48:46;102536.81;;;16.27;71.81
20983;BME280;10650;51.528;6.748;2022-10-03T10:58:25;102532.22;;;16.48;68.18
20983;BME280;10650;51.528;6.748;2022-10-03T11:04:49;102532.22;;;16.46;64.64
20983;BME280;10650;51.528;6.748;2022-10-03T11:11:19;102530.31;;;16.68;66.37
20983;BME280;10650;51.528;6.748;2022-10-03T11:14:20;102530.28;;;16.71;65.96
20983;BME280;10650;51.528;6.748;2022-10-03T11:23:30;102516.72;;;16.84;63.75
20983;BME280;10650;51.528;6.748;2022-10-03T11:26:29;102514.88;;;16.86;63.80
20983;BME280;10650;51.528;6.748;2022-10-03T11:29:19;102515.81;;;16.83;63.57
20983;BME280;10650;51.528;6.748;2022-10-03T11:32:40;102508.63;;;16.82;63.65
20983;BME280;10650;51.528;6.748;2022-10-03T11:35:48;102511.28;;;16.87;63.62
20983;BME280;10650;51.528;6.748;2022-10-03T11:38:25;102507.66;;;16.97;64.33
20983;BME280;10650;51.528;6.748;2022-10-03T11:41:00;102512.16;;;16.97;63.23
20983;BME280;10650;51.528;6.748;2022-10-03T11:43:50;102512.09;;;17.03;63.45
20983;BME280;10650;51.528;6.748;2022-10-03T11:46:46;102505.88;;;16.93;62.62
20983;BME280;10650;51.528;6.748;2022-10-03T11:49:29;102513.94;;;17.01;63.70
20983;BME280;10650;51.528;6.748;2022-10-03T11:52:11;102512.03;;;17.09;62.81
20983;BME280;10650;51.528;6.748;2022-10-03T11:54:45;102515.59;;;17.16;61.65
20983;BME280;10650;51.528;6.748;2022-10-03T11:57:17;102510.09;;;17.25;62.24
20983;BME280;10650;51.528;6.748;2022-10-03T11:59:58;102514.38;;;17.49;63.53
20983;BME280;10650;51.528;6.748;2022-10-03T12:05:38;102507.69;;;17.87;61.60
20983;BME280;10650;51.528;6.748;2022-10-03T12:08:18;102494.06;;;18.01;61.17
20983;BME280;10650;51.528;6.748;2022-10-03T12:11:09;102487.56;;;18.14;60.16
20983;BME280;10650;51.528;6.748;2022-10-03T12:13:57;102491.97;;;18.22;58.75
20983;BME280;10650;51.528;6.748;2022-10-03T12:16:47;102492.03;;;18.17;57.31
20983;BME280;10650;51.528;6.748;2022-10-03T12:19:25;102493.81;;;18.16;56.98
20983;BME280;10650;51.528;6.748;2022-10-03T12:22:05;102484.75;;;18.22;56.82
20983;BME280;10650;51.528;6.748;2022-10-03T12:24:40;102486.53;;;18.23;56.29
20983;BME280;10650;51.528;6.748;2022-10-03T12:27:12;102487.41;;;18.27;56.94
20983;BME280;10650;51.528;6.748;2022-10-03T12:29:54;102487.22;;;18.39;57.73
20983;BME280;10650;51.528;6.748;2022-10-03T12:32:36;102487.13;;;18.47;56.24
20983;BME280;10650;51.528;6.748;2022-10-03T12:35:20;102479.72;;;18.60;57.41
20983;BME280;10650;51.528;6.748;2022-10-03T12:38:05;102482.97;;;18.82;57.41
20983;BME280;10650;51.528;6.748;2022-10-03T12:40:38;102478.38;;;18.90;56.35
20983;BME280;10650;51.528;6.748;2022-10-03T12:43:08;102478.28;;;18.95;56.87
20983;BME280;10650;51.528;6.748;2022-10-03T12:45:49;102478.25;;;18.98;55.82
20983;BME280;10650;51.528;6.748;2022-10-03T12:48:33;102475.41;;;19.07;55.84
20983;BME280;10650;51.528;6.748;2022-10-03T12:51:19;102484.25;;;19.15;55.76
20983;BME280;10650;51.528;6.748;2022-10-03T12:53:59;102485.13;;;19.19;55.18
20983;BME280;10650;51.528;6.748;2022-10-03T12:56:39;102481.50;;;19.20;54.92
20983;BME280;10650;51.528;6.748;2022-10-03T12:59:14;102478.69;;;19.25;55.21
20983;BME280;10650;51.528;6.748;2022-10-03T13:01:59;102476.88;;;19.25;54.55
20983;BME280;10650;51.528;6.748;2022-10-03T13:04:40;102483.41;;;19.13;54.37
20983;BME280;10650;51.528;6.748;2022-10-03T13:07:18;102480.03;;;18.99;54.22
20983;BME280;10650;51.528;6.748;2022-10-03T13:10:02;102480.16;;;18.91;55.04
20983;BME280;10650;51.528;6.748;2022-10-03T13:12:41;102482.13;;;18.80;55.50
20983;BME280;10650;51.528;6.748;2022-10-03T13:15:45;102472.34;;;18.70;55.68
20983;BME280;10650;51.528;6.748;2022-10-03T13:18:34;102473.41;;;18.59;54.56
20983;BME280;10650;51.528;6.748;2022-10-03T13:21:13;102470.72;;;18.58;55.38
20983;BME280;10650;51.528;6.748;2022-10-03T13:24:04;102464.19;;;18.73;55.11
20983;BME280;10650;51.528;6.748;2022-10-03T13:26:45;102464.97;;;18.79;54.97
20983;BME280;10650;51.528;6.748;2022-10-03T13:29:23;102468.75;;;18.69;54.61
20983;BME280;10650;51.528;6.748;2022-10-03T13:32:02;102462.50;;;18.64;55.38
20983;BME280;10650;51.528;6.748;2022-10-03T13:34:45;102463.50;;;18.57;55.51
20983;BME280;10650;51.528;6.748;2022-10-03T13:37:22;102461.78;;;18.51;56.06
20983;BME280;10650;51.528;6.748;2022-10-03T13:39:56;102455.66;;;18.40;55.26
20983;BME280;10650;51.528;6.748;2022-10-03T13:42:37;102461.16;;;18.32;55.39
20983;BME280;10650;51.528;6.748;2022-10-03T13:45:12;102463.06;;;18.27;55.86
20983;BME280;10650;51.528;6.748;2022-10-03T13:47:44;102453.91;;;18.36;56.11
20983;BME280;10650;51.528;6.748;2022-10-03T13:50:15;102455.47;;;18.52;55.87
20983;BME280;10650;51.528;6.748;2022-10-03T13:52:50;102442.63;;;18.65;54.94
20983;BME280;10650;51.528;6.748;2022-10-03T13:55:27;102438.81;;;18.80;54.58
20983;BME280;10650;51.528;6.748;2022-10-03T13:58:14;102441.41;;;18.88;53.59
20983;BME280;10650;51.528;6.748;2022-10-03T14:01:00;102438.56;;;18.95;54.96
20983;BME280;10650;51.528;6.748;2022-10-03T14:03:44;102437.44;;;19.09;54.12
20983;BME280;10650;51.528;6.748;2022-10-03T14:06:20;102443.59;;;19.18;53.98
20983;BME280;10650;51.528;6.748;2022-10-03T14:11:56;102435.50;;;19.15;52.98
20983;BME280;10650;51.528;6.748;2022-10-03T14:14:42;102431.22;;;19.02;53.68
20983;BME280;10650;51.528;6.748;2022-10-03T14:17:18;102439.63;;;18.87;53.50
20983;BME280;10650;51.528;6.748;2022-10-03T14:20:04;102434.38;;;18.74;54.62
20983;BME280;10650;51.528;6.748;2022-10-03T14:22:46;102432.72;;;18.64;53.94
20983;BME280;10650;51.528;6.748;2022-10-03T14:25:21;102432.91;;;18.53;54.74
20983;BME280;10650;51.528;6.748;2022-10-03T14:27:56;102436.69;;;18.43;54.33
20983;BME280;10650;51.528;6.748;2022-10-03T14:30:29;102429.59;;;18.34;54.66
20983;BME280;10650;51.528;6.748;2022-10-03T14:33:10;102421.50;;;18.31;55.11
20983;BME280;10650;51.528;6.748;2022-10-03T14:35:43;102423.38;;;18.27;54.96
20983;BME280;10650;51.528;6.748;2022-10-03T14:38:36;102417.16;;;18.21;55.49
20983;BME280;10650;51.528;6.748;2022-10-03T14:41:37;102413.59;;;18.19;55.41
20983;BME280;10650;51.528;6.748;2022-10-03T14:44:12;102419.81;;;18.22;56.26
20983;BME280;10650;51.528;6.748;2022-10-03T14:46:47;102414.41;;;18.22;56.61
20983;BME280;10650;51.528;6.748;2022-10-03T14:49:22;102420.81;;;18.16;56.20
20983;BME280;10650;51.528;6.748;2022-10-03T14:52:22;102425.41;;;18.11;56.48
20983;BME280;10650;51.528;6.748;2022-10-03T14:54:54;102418.31;;;18.03;55.78
20983;BME280;10650;51.528;6.748;2022-10-03T14:57:30;102412.94;;;17.98;56.25
20983;BME280;10650;51.528;6.748;2022-10-03T15:00:35;102420.16;;;17.99;56.31
20983;BME280;10650;51.528;6.748;2022-10-03T15:03:22;102416.53;;;18.00;56.02
20983;BME280;10650;51.528;6.748;2022-10-03T15:05:57;102416.53;;;18.00;56.69
20983;BME280;10650;51.528;6.748;2022-10-03T15:08:30;102420.09;;;18.02;56.85
20983;BME280;10650;51.528;6.748;2022-10-03T15:11:04;102410.25;;;18.00;56.18
20983;BME280;10650;51.528;6.748;2022-10-03T15:13:37;102410.34;;;17.92;55.28
20983;BME280;10650;51.528;6.748;2022-10-03T15:16:13;102408.53;;;17.89;56.44
20983;BME280;10650;51.528;6.748;2022-10-03T15:18:50;102404.06;;;17.87;56.43
20983;BME280;10650;51.528;6.748;2022-10-03T15:21:20;102400.44;;;17.88;57.12
20983;BME280;10650;51.528;6.748;2022-10-03T15:23:53;102393.25;;;17.87;56.76
20983;BME280;10650;51.528;6.748;2022-10-03T15:26:24;102392.31;;;17.89;57.23
20983;BME280;10650;51.528;6.748;2022-10-03T15:28:56;102384.25;;;17.85;56.83
20983;BME280;10650;51.528;6.748;2022-10-03T15:31:32;102390.59;;;17.82;57.06
20983;BME280;10650;51.528;6.748;2022-10-03T15:34:03;102390.63;;;17.80;57.24
20983;BME280;10650;51.528;6.748;2022-10-03T15:36:35;102388.84;;;17.79;57.45
20983;BME280;10650;51.528;6.748;2022-10-03T15:39:05;102383.44;;;17.79;57.88
20983;BME280;10650;51.528;6.748;2022-10-03T15:41:41;102379.81;;;17.80;58.49
20983;BME280;10650;51.528;6.748;2022-10-03T15:44:22;102372.59;;;17.83;59.07
20983;BME280;10650;51.528;6.748;2022-10-03T15:46:57;102373.44;;;17.85;58.94
20983;BME280;10650;51.528;6.748;2022-10-03T15:49:29;102376.16;;;17.85;58.94
20983;BME280;10650;51.528;6.748;2022-10-03T15:52:06;102374.38;;;17.82;58.64
20983;BME280;10650;51.528;6.748;2022-10-03T15:54:44;102371.75;;;17.77;59.10
20983;BME280;10650;51.528;6.748;2022-10-03T15:57:17;102369.97;;;17.75;59.44
20983;BME280;10650;51.528;6.748;2022-10-03T15:59:51;102375.41;;;17.72;60.07
20983;BME280;10650;51.528;6.748;2022-10-03T16:02:32;102366.44;;;17.70;59.50
20983;BME280;10650;51.528;6.748;2022-10-03T16:05:04;102362.03;;;17.62;59.35
20983;BME280;10650;51.528;6.748;2022-10-03T16:07:39;102356.63;;;17.62;59.86
20983;BME280;10650;51.528;6.748;2022-10-03T16:10:16;102357.63;;;17.55;60.08
20983;BME280;10650;51.528;6.748;2022-10-03T16:12:52;102351.38;;;17.50;60.22
20983;BME280;10650;51.528;6.748;2022-10-03T16:15:28;102354.09;;;17.49;60.69